Time;durP1;ratioP1;P1;durP2;ratioP2;P2;SDS_P1;SDS_P2;PMS_P1;PMS_P2;Temp;Humidity;BMP_temperature;BMP_pressure;BME280_temperature;BME280_humidity;BME280_pressure;Samples;Min_cycle;Max_cycle;Signal;HPM_P1;HPM_P2
2021/03/20 00:00:44;;;;;;;11.15;9.40;;;;;;;11.68;74.27;102194.81;5053570;28;20099;-91
2021/03/20 00:03:10;;;;;;;11.60;9.83;;;;;;;11.60;74.29;102190.81;5052466;28;20302;-91
2021/03/20 00:05:36;;;;;;;10.43;8.75;;;;;;;11.61;74.22;102182.88;5053184;28;20283;-92
2021/03/20 00:08:02;;;;;;;8.82;7.60;;;;;;;11.75;74.25;102187.53;5053056;28;20032;-92
2021/03/20 00:10:27;;;;;;;10.43;7.95;;;;;;;11.74;74.08;102198.94;5039173;28;20112;-92
2021/03/20 00:12:54;;;;;;;10.93;9.10;;;;;;;11.64;75.19;102193.25;5045650;28;20060;-92
2021/03/20 00:15:23;;;;;;;10.77;8.45;;;;;;;11.60;75.23;102196.94;5034008;28;20025;-92
2021/03/20 00:17:49;;;;;;;10.60;8.23;;;;;;;11.59;75.46;102191.72;5034153;28;20025;-92
2021/03/20 00:20:19;;;;;;;9.63;7.22;;;;;;;11.61;75.52;102192.50;5032740;28;20060;-92
2021/03/20 00:22:45;;;;;;;7.68;6.40;;;;;;;11.48;75.26;102187.78;5032792;28;20112;-92
2021/03/20 00:25:10;;;;;;;6.78;5.90;;;;;;;11.57;75.44;102193.56;5050024;28;20103;-92
2021/03/20 00:27:36;;;;;;;8.85;6.05;;;;;;;11.48;75.35;102189.56;5053659;28;20029;-92
2021/03/20 00:30:04;;;;;;;6.03;5.38;;;;;;;11.56;74.52;102197.13;5052422;28;20041;-91
2021/03/20 00:32:30;;;;;;;6.93;5.55;;;;;;;11.46;74.71;102204.56;5052090;28;20542;-92
2021/03/20 00:34:55;;;;;;;6.50;5.53;;;;;;;11.42;74.51;102198.59;5052421;28;20037;-91
2021/03/20 00:37:20;;;;;;;8.35;6.15;;;;;;;11.50;74.09;102211.41;5054014;28;20081;-92
2021/03/20 00:39:46;;;;;;;7.50;5.72;;;;;;;11.60;72.85;102194.28;5035802;28;20029;-93
2021/03/20 00:42:11;;;;;;;6.32;5.68;;;;;;;11.58;72.83;102201.41;5033327;28;20037;-94
2021/03/20 00:44:37;;;;;;;5.95;5.32;;;;;;;11.62;72.28;102212.66;5033693;28;20056;-93
2021/03/20 00:47:04;;;;;;;5.40;4.68;;;;;;;11.57;72.83;102217.25;5032327;28;20167;-93
2021/03/20 00:49:29;;;;;;;8.90;5.18;;;;;;;11.50;72.46;102201.72;5031841;28;20029;-93
2021/03/20 00:51:55;;;;;;;6.30;4.93;;;;;;;11.51;72.33;102219.25;5032716;28;20041;-93
2021/03/20 00:54:21;;;;;;;7.68;5.57;;;;;;;11.77;69.75;102208.47;5046957;28;20078;-92
2021/03/20 00:56:46;;;;;;;6.20;5.10;;;;;;;11.70;70.28;102203.50;5053173;28;20100;-92
2021/03/20 00:59:11;;;;;;;7.82;4.47;;;;;;;11.77;69.46;102204.09;5051957;28;20025;-93
2021/03/20 01:01:37;;;;;;;7.43;5.05;;;;;;;11.74;69.58;102198.94;5052560;28;20479;-92
2021/03/20 01:04:02;;;;;;;6.60;4.90;;;;;;;11.63;69.35;102201.19;5052877;28;20458;-93
2021/03/20 01:06:28;;;;;;;7.63;4.53;;;;;;;11.70;68.91;102202.66;5053216;28;20059;-93
2021/03/20 01:08:55;;;;;;;8.40;5.68;;;;;;;11.64;69.76;102214.28;5052362;28;20032;-92
2021/03/20 01:11:22;;;;;;;4.88;4.38;;;;;;;11.66;69.63;102211.59;5051504;28;20111;-92
2021/03/20 01:13:47;;;;;;;6.53;5.28;;;;;;;11.59;69.75;102207.50;5047084;28;20105;-93
2021/03/20 01:16:14;;;;;;;6.57;5.13;;;;;;;11.58;70.02;102208.44;5032666;28;20061;-93
2021/03/20 01:18:40;;;;;;;7.13;5.05;;;;;;;11.51;69.62;102202.56;5033347;28;20029;-93
2021/03/20 01:21:07;;;;;;;5.97;4.32;;;;;;;11.44;70.15;102216.94;5032813;28;20045;-92
2021/03/20 01:23:32;;;;;;;5.75;4.82;;;;;;;11.59;69.27;102213.66;5041337;28;20051;-92
2021/03/20 01:25:58;;;;;;;6.45;5.10;;;;;;;11.54;68.94;102209.50;5051311;28;20467;-92
2021/03/20 01:28:29;;;;;;;7.10;4.97;;;;;;;11.75;69.10;102223.47;5052363;28;20028;-92
2021/03/20 01:30:55;;;;;;;5.85;5.05;;;;;;;11.90;67.78;102223.69;5051797;28;20029;-92
2021/03/20 01:33:20;;;;;;;5.63;4.82;;;;;;;11.79;68.10;102217.16;5051691;28;20078;-92
2021/03/20 01:35:46;;;;;;;6.47;5.50;;;;;;;11.81;67.94;102234.63;5050599;28;20498;-92
2021/03/20 01:38:12;;;;;;;8.38;5.70;;;;;;;11.84;67.93;102234.47;5042294;28;20528;-92
2021/03/20 01:41:02;;;;;;;6.90;5.60;;;;;;;11.62;68.30;102239.81;5030193;28;20040;-92
2021/03/20 01:43:29;;;;;;;9.65;5.97;;;;;;;11.58;68.43;102240.03;5030364;28;20025;-92
2021/03/20 01:46:33;;;;;;;6.47;5.45;;;;;;;11.49;67.60;102207.94;5031581;28;20022;-92
2021/03/20 01:48:59;;;;;;;8.18;5.55;;;;;;;11.31;68.94;102221.84;5030425;28;20037;-92
2021/03/20 01:51:24;;;;;;;7.13;5.60;;;;;;;11.34;69.08;102224.34;5030735;28;20083;-92
2021/03/20 01:53:56;;;;;;;8.18;5.47;;;;;;;11.39;68.27;102225.00;5031729;28;20026;-92
2021/03/20 01:56:27;;;;;;;11.13;5.80;;;;;;;11.38;69.00;102228.56;5031372;28;20025;-93
2021/03/20 01:58:53;;;;;;;6.28;4.88;;;;;;;11.43;67.90;102221.34;5031489;28;20029;-92
2021/03/20 02:01:26;;;;;;;7.00;5.20;;;;;;;11.47;68.52;102224.69;5030065;28;20075;-92
2021/03/20 02:03:53;;;;;;;7.07;5.15;;;;;;;11.44;68.37;102230.09;5030133;28;20033;-92
2021/03/20 02:06:19;;;;;;;6.80;5.43;;;;;;;11.36;68.86;102209.38;5030264;28;20061;-92
2021/03/20 02:08:46;;;;;;;7.05;4.97;;;;;;;11.39;68.70;102211.84;5048542;28;20083;-93
2021/03/20 02:11:20;;;;;;;7.82;5.65;;;;;;;11.47;68.63;102228.19;5049776;28;20060;-92
2021/03/20 02:14:18;;;;;;;6.57;5.13;;;;;;;11.46;69.03;102226.47;5050040;28;20052;-93
2021/03/20 02:17:00;;;;;;;7.47;5.60;;;;;;;11.38;68.73;102222.47;5045633;28;20030;-92
2021/03/20 02:19:58;;;;;;;7.10;5.35;;;;;;;11.34;69.21;102221.72;5051501;28;20100;-93
2021/03/20 02:22:32;;;;;;;6.68;5.72;;;;;;;11.37;68.83;102211.06;5008462;28;20049;-93
2021/03/20 02:24:57;;;;;;;8.27;5.82;;;;;;;11.28;68.24;102224.63;5030098;28;20024;-92
2021/03/20 02:27:49;;;;;;;5.75;4.70;;;;;;;11.39;68.50;102227.63;5032355;28;20442;-93
2021/03/20 02:30:51;;;;;;;7.82;5.55;;;;;;;11.41;69.58;102225.78;5034734;28;20112;-92
2021/03/20 02:33:33;;;;;;;7.40;5.18;;;;;;;11.32;70.24;102229.69;5033489;28;20128;-92
2021/03/20 02:36:14;;;;;;;5.90;4.80;;;;;;;11.39;70.28;102218.91;5034833;28;20571;-92
2021/03/20 02:38:45;;;;;;;8.80;6.68;;;;;;;11.37;70.46;102226.00;5034679;28;20092;-93
2021/03/20 02:41:30;;;;;;;6.80;5.33;;;;;;;11.38;69.56;102218.03;5049617;28;20040;-92
2021/03/20 02:44:08;;;;;;;7.03;5.70;;;;;;;11.43;69.80;102223.97;5049869;28;20301;-92
2021/03/20 02:46:43;;;;;;;8.57;5.20;;;;;;;11.32;70.47;102218.31;5034351;28;20021;-93
2021/03/20 02:49:30;;;;;;;7.40;5.90;;;;;;;11.35;69.98;102215.53;5034340;28;20037;-92
2021/03/20 02:52:04;;;;;;;7.55;5.20;;;;;;;11.26;70.27;102222.03;5058757;28;20025;-92
2021/03/20 02:54:42;;;;;;;7.95;6.32;;;;;;;11.14;69.97;102214.69;5052773;28;20017;-92
2021/03/20 02:57:11;;;;;;;9.07;6.05;;;;;;;11.20;69.60;102219.69;5054228;28;20054;-92
2021/03/20 02:59:40;;;;;;;9.07;6.25;;;;;;;11.22;70.57;102211.72;5052815;28;20032;-92
2021/03/20 03:02:10;;;;;;;9.43;6.10;;;;;;;11.18;71.66;102211.00;5052804;28;20082;-91
2021/03/20 03:04:44;;;;;;;7.78;5.85;;;;;;;11.15;71.02;102213.75;5054019;28;20096;-92
2021/03/20 03:07:20;;;;;;;7.10;5.43;;;;;;;11.10;71.86;102205.22;5039576;28;20021;-91
2021/03/20 03:09:52;;;;;;;8.07;5.38;;;;;;;11.16;71.84;102217.22;5033989;28;20048;-92
2021/03/20 03:12:29;;;;;;;;;;;;;;;11.11;71.97;102218.25;5034835;28;20021;-92
2021/03/20 03:15:01;;;;;;;8.48;5.50;;;;;;;11.08;72.25;102215.78;5032586;28;19942;-92
2021/03/20 03:17:31;;;;;;;8.32;6.38;;;;;;;10.86;72.63;102217.56;5033702;28;20033;-93
2021/03/20 03:20:06;;;;;;;8.90;6.07;;;;;;;11.01;71.88;102214.31;5032446;28;20435;-92
2021/03/20 03:22:41;;;;;;;8.77;6.60;;;;;;;11.09;71.24;102211.38;5049920;28;20029;-92
2021/03/20 03:25:11;;;;;;;8.38;6.13;;;;;;;11.04;71.52;102216.81;5052265;28;20028;-93
2021/03/20 03:27:40;;;;;;;8.35;5.88;;;;;;;11.13;71.17;102212.94;5053586;28;20032;-92
2021/03/20 03:30:08;;;;;;;8.00;5.70;;;;;;;11.07;72.25;102198.28;5052317;28;20108;-92
2021/03/20 03:32:38;;;;;;;9.73;6.07;;;;;;;11.12;72.31;102198.13;5053461;28;20029;-92
2021/03/20 03:35:16;;;;;;;8.32;5.95;;;;;;;11.23;71.83;102206.38;5053175;28;20021;-92
2021/03/20 03:38:12;;;;;;;8.93;6.40;;;;;;;11.21;71.51;102200.34;5033433;28;20032;-91
2021/03/20 03:40:48;;;;;;;9.07;6.75;;;;;;;11.21;70.83;102194.22;5048781;28;20034;-93
2021/03/20 03:43:15;;;;;;;7.38;5.55;;;;;;;11.36;70.64;102204.09;5033372;28;20021;-92
2021/03/20 03:45:43;;;;;;;7.55;5.70;;;;;;;11.36;71.02;102187.47;5033508;28;20541;-92
2021/03/20 03:48:09;;;;;;;7.15;5.82;;;;;;;11.29;70.84;102187.75;5032054;28;20025;-92
2021/03/20 03:50:38;;;;;;;8.27;6.22;;;;;;;11.43;70.47;102194.16;5038664;28;20497;-92
2021/03/20 03:53:06;;;;;;;9.77;6.22;;;;;;;11.38;70.96;102190.91;5053325;28;20025;-92
2021/03/20 03:55:32;;;;;;;8.68;6.45;;;;;;;11.32;70.22;102177.06;5051867;28;20498;-92
2021/03/20 03:58:24;;;;;;;10.23;6.38;;;;;;;11.46;70.21;102178.28;5051801;28;20510;-92
2021/03/20 04:01:12;;;;;;;8.80;6.78;;;;;;;11.43;70.43;102171.38;5052848;28;20032;-93
2021/03/20 04:04:01;;;;;;;10.30;6.90;;;;;;;11.28;70.71;102175.50;5051742;28;20502;-93
2021/03/20 04:06:38;;;;;;;8.00;6.20;;;;;;;11.51;69.87;102177.16;5052668;28;20029;-92
2021/03/20 04:09:26;;;;;;;8.68;5.50;;;;;;;11.54;69.52;102164.78;5051982;28;20124;-93
2021/03/20 04:12:13;;;;;;;8.52;6.22;;;;;;;11.51;70.40;102171.88;5051580;28;20029;-93
2021/03/20 04:15:05;;;;;;;9.43;6.57;;;;;;;11.48;70.58;102171.16;5051487;28;20028;-93
2021/03/20 04:17:40;;;;;;;8.35;6.32;;;;;;;11.32;71.67;102171.81;5052742;28;20483;-93
2021/03/20 04:20:13;;;;;;;9.00;6.65;;;;;;;11.15;71.92;102184.81;5044836;28;20099;-93
2021/03/20 04:23:08;;;;;;;8.90;6.35;;;;;;;11.02;72.75;102184.50;5031577;28;20555;-93
2021/03/20 04:25:55;;;;;;;7.90;6.20;;;;;;;11.36;71.70;102187.47;5014869;28;20037;-93
2021/03/20 04:28:32;;;;;;;8.68;5.85;;;;;;;11.17;72.11;102192.66;5031587;28;20029;-93
2021/03/20 04:31:07;;;;;;;10.10;6.75;;;;;;;10.82;73.55;102190.56;5032687;28;20484;-93
2021/03/20 04:33:40;;;;;;;9.32;5.90;;;;;;;10.81;73.33;102201.13;5031511;28;20028;-93
2021/03/20 04:36:15;;;;;;;10.55;7.05;;;;;;;10.84;73.51;102190.47;5048137;28;20021;-93
2021/03/20 04:38:42;;;;;;;8.48;6.10;;;;;;;10.78;74.09;102175.84;5051583;28;20112;-93
2021/03/20 04:41:09;;;;;;;9.48;5.82;;;;;;;10.91;73.62;102194.59;5051261;28;20043;-93
2021/03/20 04:43:38;;;;;;;8.05;5.93;;;;;;;10.99;73.81;102191.66;5053515;28;20541;-94
2021/03/20 04:46:16;;;;;;;8.35;6.28;;;;;;;11.12;72.07;102184.97;5052117;28;20017;-95
2021/03/20 04:48:46;;;;;;;8.98;6.57;;;;;;;11.23;71.57;102184.50;5051797;28;20588;-94
2021/03/20 04:51:24;;;;;;;9.65;6.97;;;;;;;11.24;71.80;102188.84;5031659;28;20252;-94
2021/03/20 04:53:58;;;;;;;8.70;6.65;;;;;;;11.31;71.26;102196.44;5031373;28;20030;-94
2021/03/20 04:56:24;;;;;;;9.38;6.78;;;;;;;11.10;72.00;102192.91;5032909;28;20017;-96
2021/03/20 04:58:55;;;;;;;9.38;6.90;;;;;;;11.11;72.21;102194.59;5032605;28;20238;-96
2021/03/20 05:01:43;;;;;;;9.07;6.78;;;;;;;11.09;72.47;102198.22;5032472;28;20125;-95
2021/03/20 05:04:20;;;;;;;8.27;6.45;;;;;;;11.13;72.36;102193.69;5037344;28;20035;-95
2021/03/20 05:06:49;;;;;;;9.00;7.30;;;;;;;11.08;71.95;102205.25;5051964;28;20503;-95
2021/03/20 05:09:20;;;;;;;10.35;7.75;;;;;;;11.03;73.18;102191.44;5051671;28;20095;-94
2021/03/20 05:11:54;;;;;;;10.88;6.85;;;;;;;11.16;72.03;102193.56;5051890;28;20156;-94
2021/03/20 05:14:35;;;;;;;10.13;7.22;;;;;;;11.03;71.82;102201.13;5051714;28;20111;-94
2021/03/20 05:17:01;;;;;;;10.60;7.50;;;;;;;10.87;73.58;102195.63;5051324;28;20025;-95
2021/03/20 05:19:28;;;;;;;10.07;7.25;;;;;;;10.89;73.11;102188.53;5051545;28;20033;-94
2021/03/20 05:21:56;;;;;;;9.35;6.93;;;;;;;11.13;72.53;102191.91;5050902;28;20112;-94
2021/03/20 05:24:31;;;;;;;11.15;7.07;;;;;;;11.28;72.17;102190.44;5051084;28;20041;-94
2021/03/20 05:26:57;;;;;;;10.80;7.85;;;;;;;10.88;72.92;102187.69;5050986;28;20027;-96
2021/03/20 05:29:24;;;;;;;10.90;6.82;;;;;;;10.78;74.42;102185.47;5051163;28;20424;-93
2021/03/20 05:31:50;;;;;;;9.07;6.65;;;;;;;10.78;74.22;102190.72;5051058;28;20021;-95
2021/03/20 05:34:17;;;;;;;11.68;7.53;;;;;;;10.99;73.61;102189.88;5040717;28;20075;-94
2021/03/20 05:36:43;;;;;;;9.77;6.70;;;;;;;11.02;73.48;102200.25;5031976;28;20010;-94
2021/03/20 05:39:08;;;;;;;11.18;7.25;;;;;;;10.84;74.45;102195.75;5032247;28;20028;-95
2021/03/20 05:41:44;;;;;;;10.75;7.43;;;;;;;10.88;74.06;102192.06;5031468;28;20063;-93
2021/03/20 05:44:42;;;;;;;8.80;6.88;;;;;;;10.70;75.08;102197.16;5031921;28;20080;-96
2021/03/20 05:47:23;;;;;;;10.88;7.43;;;;;;;10.87;74.70;102207.00;5032903;28;20061;-96
2021/03/20 05:49:57;;;;;;;8.90;6.78;;;;;;;10.80;74.28;102215.19;5048849;28;20035;-93
2021/03/20 05:52:30;;;;;;;9.20;7.05;;;;;;;11.05;73.17;102207.16;5034309;28;20053;-96
2021/03/20 05:55:27;;;;;;;10.57;6.55;;;;;;;11.13;72.88;102209.47;5032714;28;20029;-96
2021/03/20 05:58:24;;;;;;;10.20;7.35;;;;;;;10.97;73.27;102191.69;5039629;28;20029;-95
2021/03/20 06:01:14;;;;;;;10.05;7.28;;;;;;;11.04;73.14;102211.56;5056086;28;20033;-96
2021/03/20 06:03:58;;;;;;;11.25;7.15;;;;;;;10.80;74.17;102213.44;5060530;28;20032;-96
2021/03/20 06:06:46;;;;;;;10.52;7.50;;;;;;;10.76;73.91;102193.41;5056717;28;20024;-96
2021/03/20 06:09:59;;;;;;;10.80;7.18;;;;;;;10.99;73.12;102213.53;5057189;28;20056;-95
2021/03/20 06:12:25;;;;;;;9.18;7.43;;;;;;;11.13;72.51;102212.09;5047240;28;20039;-94
2021/03/20 06:15:13;;;;;;;10.43;7.18;;;;;;;11.10;72.29;102195.53;5055207;28;20021;-95
2021/03/20 06:17:50;;;;;;;11.02;7.25;;;;;;;11.28;72.43;102214.94;5038704;28;20033;-95
2021/03/20 06:20:44;;;;;;;10.98;7.20;;;;;;;11.26;72.80;102203.63;5036225;28;20029;-95
2021/03/20 06:23:47;;;;;;;10.07;7.18;;;;;;;11.31;73.01;102220.09;5051524;28;20116;-95
2021/03/20 06:26:28;;;;;;;11.00;6.75;;;;;;;11.34;73.35;102220.88;5034893;28;20107;-95
2021/03/20 06:29:23;;;;;;;9.70;7.10;;;;;;;11.34;72.64;102224.34;5063962;28;20116;-93
2021/03/20 06:31:53;;;;;;;9.65;6.70;;;;;;;11.55;71.68;102227.84;5034465;28;20088;-93
2021/03/20 06:34:32;;;;;;;13.18;8.07;;;;;;;11.60;71.62;102222.41;5055563;28;20032;-93
2021/03/20 06:37:04;;;;;;;9.43;8.02;;;;;;;11.54;72.06;102225.28;5036082;28;20104;-93
2021/03/20 06:39:35;;;;;;;11.52;7.45;;;;;;;11.59;71.30;102215.41;5066923;28;20022;-93
2021/03/20 06:42:07;;;;;;;;;;;;;;;11.75;71.02;102218.22;5040024;28;20483;-92
2021/03/20 06:44:37;;;;;;;10.15;7.05;;;;;;;11.69;71.50;102222.84;5051494;28;19916;-92
2021/03/20 06:47:18;;;;;;;11.18;7.80;;;;;;;11.66;71.96;102217.72;5053149;28;20021;-93
2021/03/20 06:50:02;;;;;;;11.50;8.23;;;;;;;11.79;71.20;102217.16;5052103;28;20040;-94
2021/03/20 06:52:30;;;;;;;12.40;7.75;;;;;;;11.64;71.75;102218.69;5051731;28;20044;-94
2021/03/20 06:55:06;;;;;;;12.75;9.05;;;;;;;11.75;71.86;102228.75;5035561;28;20021;-94
2021/03/20 06:57:35;;;;;;;12.23;8.40;;;;;;;11.57;71.12;102210.22;5038346;28;20032;-94
2021/03/20 07:00:15;;;;;;;12.40;8.52;;;;;;;11.63;70.87;102209.97;5040386;28;20451;-94
2021/03/20 07:02:56;;;;;;;12.32;8.98;;;;;;;11.79;70.92;102222.44;5043582;28;20025;-94
2021/03/20 07:06:04;;;;;;;10.75;8.05;;;;;;;11.69;71.76;102229.91;5052704;28;20029;-93
2021/03/20 07:09:04;;;;;;;16.08;9.35;;;;;;;11.90;70.98;102244.75;5037621;28;20032;-95
2021/03/20 07:11:32;;;;;;;13.07;9.13;;;;;;;11.61;71.44;102219.69;5022388;28;20079;-96
2021/03/20 07:14:06;;;;;;;12.32;8.70;;;;;;;11.73;71.84;102242.00;5052277;28;20116;-95
2021/03/20 07:16:52;;;;;;;11.63;8.52;;;;;;;11.58;72.80;102221.59;5054582;28;20033;-95
2021/03/20 07:19:17;;;;;;;13.00;8.40;;;;;;;11.30;72.94;102215.75;5053635;28;20033;-96
2021/03/20 07:21:45;;;;;;;18.10;8.90;;;;;;;10.85;75.99;102218.50;5055087;28;20032;-96
2021/03/20 07:24:18;;;;;;;14.90;9.88;;;;;;;10.87;77.72;102235.03;5054053;28;20025;-95
2021/03/20 07:26:58;;;;;;;15.85;10.30;;;;;;;10.94;77.87;102226.00;5054522;28;20029;-95
2021/03/20 07:29:48;;;;;;;15.80;10.80;;;;;;;11.11;76.97;102218.25;5054217;28;20028;-96
2021/03/20 07:32:31;;;;;;;16.85;10.68;;;;;;;11.11;77.66;102220.91;5054579;28;20020;-96
2021/03/20 07:35:14;;;;;;;17.42;11.63;;;;;;;11.34;77.63;102252.44;5056432;28;20030;-96
2021/03/20 07:37:40;;;;;;;16.92;11.05;;;;;;;11.24;77.87;102225.66;5035665;28;20056;-96
2021/03/20 07:40:13;;;;;;;18.73;11.80;;;;;;;11.23;78.70;102231.84;5037735;28;20005;-96
2021/03/20 07:42:42;;;;;;;18.90;12.13;;;;;;;11.15;79.57;102231.31;5048795;28;20029;-95
2021/03/20 07:45:17;;;;;;;21.48;13.52;;;;;;;11.50;79.18;102240.34;5045649;28;20025;-96
2021/03/20 07:47:50;;;;;;;20.85;13.60;;;;;;;11.20;80.00;102224.09;5055331;28;20036;-96
2021/03/20 07:50:18;;;;;;;23.13;14.13;;;;;;;11.38;80.91;102248.75;5054741;28;20471;-96
2021/03/20 07:52:59;;;;;;;20.73;13.68;;;;;;;11.16;80.94;102222.47;5055694;28;20050;-96
2021/03/20 07:55:25;;;;;;;24.88;15.65;;;;;;;11.30;81.43;102235.94;5053697;28;20021;-96
2021/03/20 07:58:00;;;;;;;21.95;14.88;;;;;;;11.25;82.36;102222.09;5060475;28;20085;-96
2021/03/20 08:00:27;;;;;;;28.33;16.70;;;;;;;11.44;82.61;102249.34;5055548;28;20502;-96
2021/03/20 08:02:53;;;;;;;25.75;16.20;;;;;;;11.45;82.65;102240.56;5043647;28;20120;-96
2021/03/20 08:05:20;;;;;;;33.15;16.30;;;;;;;11.65;81.76;102251.97;5062434;28;20020;-93
2021/03/20 08:07:48;;;;;;;27.25;16.77;;;;;;;11.61;82.73;102235.50;5072727;28;20032;-96
2021/03/20 08:10:34;;;;;;;30.60;17.90;;;;;;;11.51;82.40;102221.88;5044489;28;20052;-96
2021/03/20 08:13:02;;;;;;;28.52;18.20;;;;;;;11.67;82.23;102242.22;5056148;28;20033;-96
2021/03/20 08:15:33;;;;;;;30.05;18.88;;;;;;;11.63;82.71;102209.97;5070305;28;20025;-96
2021/03/20 08:18:09;;;;;;;30.85;18.30;;;;;;;11.47;83.52;102222.03;5067487;28;20402;-96
2021/03/20 08:20:35;;;;;;;29.60;18.35;;;;;;;11.48;83.81;102222.00;5044827;28;20541;-90
2021/03/20 08:23:15;;;;;;;30.50;19.00;;;;;;;12.00;82.52;102239.94;5043559;28;20037;-89
2021/03/20 08:25:54;;;;;;;34.70;20.27;;;;;;;11.58;83.39;102237.38;5037205;28;20029;-89
2021/03/20 08:28:28;;;;;;;34.63;19.27;;;;;;;11.82;82.63;102244.19;5041786;28;20029;-89
2021/03/20 08:31:12;;;;;;;29.60;19.60;;;;;;;11.95;81.33;102255.09;5050582;28;20025;-90
2021/03/20 08:34:05;;;;;;;29.52;19.08;;;;;;;11.93;82.54;102256.06;5052232;28;20029;-89
2021/03/20 08:37:00;;;;;;;31.27;18.98;;;;;;;11.73;84.61;102260.41;5050464;28;20028;-90
2021/03/20 08:39:37;;;;;;;32.40;18.95;;;;;;;11.87;83.95;102244.88;5033669;28;20111;-90
2021/03/20 08:42:39;;;;;;;31.05;19.55;;;;;;;12.00;82.38;102247.84;5037835;28;20025;-90
2021/03/20 08:45:26;;;;;;;33.08;19.95;;;;;;;12.09;81.79;102255.34;5041614;28;20028;-90
2021/03/20 08:48:19;;;;;;;29.67;18.58;;;;;;;12.12;81.58;102256.97;5050782;28;20028;-89
2021/03/20 08:53:37;;;;;;;33.15;19.70;;;;;;;11.69;83.71;102256.22;5056462;28;20048;-86
2021/03/20 08:56:28;;;;;;;33.08;19.55;;;;;;;12.00;83.63;102253.09;5052008;28;20048;-85
2021/03/20 08:59:03;;;;;;;30.13;18.92;;;;;;;12.26;81.89;102259.84;5014719;28;20021;-86
2021/03/20 09:01:28;;;;;;;37.72;19.38;;;;;;;12.20;81.48;102257.47;5033256;28;20446;-87
2021/03/20 09:03:59;;;;;;;31.92;19.23;;;;;;;12.29;82.22;102259.69;5050450;28;20028;-86
2021/03/20 09:06:35;;;;;;;30.52;18.88;;;;;;;12.42;81.96;102254.72;5033148;28;21060;-85
2021/03/20 09:09:11;;;;;;;35.40;19.42;;;;;;;12.50;81.14;102262.28;5051250;28;20020;-86
2021/03/20 09:11:50;;;;;;;30.77;18.75;;;;;;;12.70;79.90;102258.72;5041150;28;20036;-90
2021/03/20 09:14:24;;;;;;;32.20;18.52;;;;;;;12.74;80.02;102260.28;5043045;28;20108;-90
2021/03/20 09:16:59;;;;;;;32.08;20.70;;;;;;;12.45;80.94;102259.00;5040013;28;20068;-90
2021/03/20 09:19:27;;;;;;;29.88;18.10;;;;;;;12.48;80.10;102259.72;5049379;28;20032;-89
2021/03/20 09:21:56;;;;;;;29.33;18.77;;;;;;;12.65;80.26;102256.28;5047496;28;20021;-87
2021/03/20 09:24:26;;;;;;;30.33;18.45;;;;;;;12.76;79.46;102253.13;5047232;28;20024;-92
2021/03/20 09:26:56;;;;;;;30.10;19.17;;;;;;;12.52;80.76;102249.88;5022876;28;20025;-90
2021/03/20 09:29:29;;;;;;;31.88;19.77;;;;;;;12.66;80.94;102257.16;5050004;28;20049;-89
2021/03/20 09:31:55;;;;;;;31.75;19.67;;;;;;;12.55;80.67;102255.00;5017094;28;20029;-90
2021/03/20 09:34:34;;;;;;;31.80;17.90;;;;;;;12.97;78.23;102255.66;5023658;28;20472;-87
2021/03/20 09:37:18;;;;;;;30.52;19.10;;;;;;;13.09;79.38;102261.22;5026999;28;20025;-85
2021/03/20 09:39:49;;;;;;;27.98;17.95;;;;;;;13.17;76.97;102257.31;5044745;28;20057;-85
2021/03/20 09:42:24;;;;;;;30.13;19.63;;;;;;;13.06;77.51;102260.50;5051321;28;20048;-84
2021/03/20 09:45:03;;;;;;;27.83;19.42;;;;;;;12.92;78.27;102249.78;5052292;28;20514;-85
2021/03/20 09:47:35;;;;;;;31.42;18.50;;;;;;;12.68;78.29;102260.56;5045599;28;20032;-85
2021/03/20 09:50:27;;;;;;;32.47;19.67;;;;;;;12.39;80.51;102259.28;5054911;28;20090;-85
2021/03/20 09:53:07;;;;;;;27.35;17.95;;;;;;;13.01;76.60;102262.50;5003662;22;20042;-89
2021/03/20 09:55:36;;;;;;;27.35;17.20;;;;;;;13.07;76.40;102257.78;5061976;28;20030;-93
2021/03/20 09:58:04;;;;;;;30.33;18.42;;;;;;;12.84;77.83;102258.06;5062437;28;20476;-93
2021/03/20 10:01:08;;;;;;;31.05;18.67;;;;;;;12.67;79.09;102254.41;5016336;28;20038;-91
2021/03/20 10:03:47;;;;;;;31.05;17.70;;;;;;;12.79;78.93;102252.13;4954758;28;20122;-92
2021/03/20 10:06:19;;;;;;;35.30;17.98;;;;;;;13.05;78.06;102264.94;5022193;28;20035;-93
2021/03/20 10:08:46;;;;;;;29.60;19.00;;;;;;;13.07;78.52;102260.44;4966680;28;20034;-94
2021/03/20 10:12:04;;;;;;;30.35;17.65;;;;;;;13.39;76.13;102258.00;4953586;28;20115;-94
2021/03/20 10:14:35;;;;;;;25.02;16.60;;;;;;;12.99;77.28;102249.38;4995275;28;20055;-90
2021/03/20 10:17:28;;;;;;;25.08;16.13;;;;;;;13.24;76.60;102253.47;5020446;28;20511;-90
2021/03/20 10:20:08;;;;;;;31.42;16.88;;;;;;;14.01;74.14;102249.56;4990444;28;20136;-90
2021/03/20 10:22:45;;;;;;;31.45;17.35;;;;;;;14.21;72.92;102248.47;5021234;28;20027;-90
2021/03/20 10:25:13;;;;;;;27.98;17.40;;;;;;;14.46;70.29;102248.00;5020002;28;20130;-90
2021/03/20 10:27:41;;;;;;;25.45;16.27;;;;;;;14.30;70.46;102258.56;5024090;28;20054;-89
2021/03/20 10:30:23;;;;;;;24.98;16.75;;;;;;;14.48;70.38;102254.06;4960574;28;20039;-91
2021/03/20 10:33:06;;;;;;;25.30;16.70;;;;;;;14.74;69.67;102254.44;5019821;28;20026;-90
2021/03/20 10:35:36;;;;;;;22.92;15.73;;;;;;;14.96;68.64;102244.34;4957279;28;20042;-91
2021/03/20 10:38:27;;;;;;;24.95;16.35;;;;;;;14.84;66.93;102248.53;4982478;28;20379;-87
2021/03/20 10:40:57;;;;;;;23.30;14.57;;;;;;;15.03;67.05;102245.69;4996442;28;20557;-88
2021/03/20 10:43:23;;;;;;;22.95;15.90;;;;;;;14.84;68.01;102239.75;4998169;28;20053;-92
2021/03/20 10:45:48;;;;;;;24.15;15.98;;;;;;;14.92;67.97;102229.59;5054638;28;20090;-94
2021/03/20 10:48:25;;;;;;;21.70;15.05;;;;;;;15.19;66.52;102224.50;5019708;28;20023;-96
2021/03/20 10:50:57;;;;;;;22.23;15.48;;;;;;;15.18;66.30;102219.28;5021753;28;20062;-94
2021/03/20 10:53:31;;;;;;;21.48;15.40;;;;;;;14.99;69.01;102223.00;5039583;28;20414;-94
2021/03/20 10:55:59;;;;;;;18.85;13.77;;;;;;;15.79;64.57;102228.03;5012384;28;20475;-95
2021/03/20 10:58:43;;;;;;;22.33;14.38;;;;;;;15.24;65.75;102227.75;5056065;28;20056;-93
2021/03/20 11:01:11;;;;;;;19.42;14.52;;;;;;;15.36;65.51;102214.69;5051642;28;20116;-95
2021/03/20 11:03:43;;;;;;;24.75;15.13;;;;;;;15.13;67.72;102219.56;5054232;28;20032;-94
2021/03/20 11:06:20;;;;;;;21.20;15.15;;;;;;;15.19;68.70;102218.38;5011348;28;20031;-94
2021/03/20 11:09:02;;;;;;;22.70;15.23;;;;;;;15.40;69.14;102225.03;4955823;28;20032;-96
2021/03/20 11:11:31;;;;;;;23.45;15.95;;;;;;;15.18;71.85;102221.94;4977552;28;20040;-96
2021/03/20 11:14:10;;;;;;;25.17;15.75;;;;;;;14.97;72.96;102213.44;5012046;28;20036;-96
2021/03/20 11:16:57;;;;;;;21.27;15.30;;;;;;;14.56;74.04;102214.88;5055857;28;20056;-95
2021/03/20 11:22:40;;;;;;;25.58;15.55;;;;;;;14.17;77.89;102205.53;5063408;28;20601;-93
2021/03/20 11:25:06;;;;;;;27.05;15.88;;;;;;;14.29;76.88;102202.19;5069493;28;20036;-95
2021/03/20 11:27:35;;;;;;;23.25;13.70;;;;;;;14.22;77.22;102211.41;5067490;28;20024;-95
2021/03/20 11:30:18;;;;;;;21.13;14.13;;;;;;;14.71;73.51;102207.00;5071540;28;20442;-93
2021/03/20 11:32:46;;;;;;;21.10;14.68;;;;;;;14.52;73.96;102208.03;5069962;28;20461;-96
2021/03/20 11:35:33;;;;;;;22.90;14.40;;;;;;;14.25;74.74;102205.94;5062321;28;20067;-95
2021/03/20 11:38:00;;;;;;;19.48;12.10;;;;;;;14.71;72.38;102204.34;5071621;28;20052;-93
2021/03/20 11:40:28;;;;;;;21.95;14.75;;;;;;;14.46;73.26;102200.44;5069458;28;20115;-92
2021/03/20 11:42:57;;;;;;;22.08;13.77;;;;;;;14.59;73.72;102204.13;5068813;28;20029;-92
2021/03/20 11:45:30;;;;;;;23.95;12.98;;;;;;;14.76;72.25;102205.81;5069499;28;20078;-93
2021/03/20 11:47:59;;;;;;;17.90;13.57;;;;;;;14.56;73.74;102196.38;5066780;28;20112;-93
2021/03/20 11:50:33;;;;;;;20.02;14.73;;;;;;;14.51;72.35;102185.16;5051526;28;20029;-92
2021/03/20 11:53:14;;;;;;;19.73;13.32;;;;;;;14.62;73.07;102188.09;5051227;28;20029;-92
2021/03/20 11:55:42;;;;;;;21.45;13.68;;;;;;;14.40;72.81;102183.13;5054314;28;20115;-92
2021/03/20 11:58:28;;;;;;;20.05;13.73;;;;;;;14.98;71.12;102181.63;5055672;28;20040;-94
2021/03/20 12:00:54;;;;;;;19.80;13.30;;;;;;;14.92;70.45;102183.78;5055113;28;20029;-95